sensor_id;sensor_type;location;lat;lon;timestamp;temperature;humidity
5466;DHT22;2755;50.728;7.108;2023-05-27T00:01:19;11.50;11.00
5466;DHT22;2755;50.728;7.108;2023-05-27T00:03:46;11.80;9.00
5466;DHT22;2755;50.728;7.108;2023-05-27T00:11:04;10.90;10.80
5466;DHT22;2755;50.728;7.108;2023-05-27T00:13:30;11.50;11.50
5466;DHT22;2755;50.728;7.108;2023-05-27T00:18:21;11.30;10.50
5466;DHT22;2755;50.728;7.108;2023-05-27T00:28:06;11.10;14.90
5466;DHT22;2755;50.728;7.108;2023-05-27T00:32:57;10.90;16.20
5466;DHT22;2755;50.728;7.108;2023-05-27T00:35:23;10.70;13.70
5466;DHT22;2755;50.728;7.108;2023-05-27T00:40:18;10.70;14.70
5466;DHT22;2755;50.728;7.108;2023-05-27T00:42:44;11.00;17.10
5466;DHT22;2755;50.728;7.108;2023-05-27T00:45:11;10.80;15.50
5466;DHT22;2755;50.728;7.108;2023-05-27T00:47:36;10.60;15.90
5466;DHT22;2755;50.728;7.108;2023-05-27T00:50:03;10.50;15.40
5466;DHT22;2755;50.728;7.108;2023-05-27T00:52:29;10.30;17.30
5466;DHT22;2755;50.728;7.108;2023-05-27T00:54:55;10.80;20.40
5466;DHT22;2755;50.728;7.108;2023-05-27T00:57:22;10.00;18.20
5466;DHT22;2755;50.728;7.108;2023-05-27T01:02:14;9.70;24.00
5466;DHT22;2755;50.728;7.108;2023-05-27T01:04:40;9.80;22.60
5466;DHT22;2755;50.728;7.108;2023-05-27T01:07:24;9.90;22.10
5466;DHT22;2755;50.728;7.108;2023-05-27T01:09:58;9.80;26.30
5466;DHT22;2755;50.728;7.108;2023-05-27T01:14:57;9.80;26.10
5466;DHT22;2755;50.728;7.108;2023-05-27T01:19:52;10.00;27.50
5466;DHT22;2755;50.728;7.108;2023-05-27T01:27:12;9.90;31.10
5466;DHT22;2755;50.728;7.108;2023-05-27T01:29:39;9.70;30.30
5466;DHT22;2755;50.728;7.108;2023-05-27T01:32:15;9.60;31.30
5466;DHT22;2755;50.728;7.108;2023-05-27T01:37:37;9.70;34.80
5466;DHT22;2755;50.728;7.108;2023-05-27T01:40:05;9.60;34.20
5466;DHT22;2755;50.728;7.108;2023-05-27T01:42:34;9.60;34.10
5466;DHT22;2755;50.728;7.108;2023-05-27T01:45:02;9.60;34.50
5466;DHT22;2755;50.728;7.108;2023-05-27T01:47:30;9.50;36.70
5466;DHT22;2755;50.728;7.108;2023-05-27T01:49:56;9.70;37.10
5466;DHT22;2755;50.728;7.108;2023-05-27T01:52:21;9.50;39.00
5466;DHT22;2755;50.728;7.108;2023-05-27T01:54:47;10.20;37.80
5466;DHT22;2755;50.728;7.108;2023-05-27T01:57:12;9.20;40.50
5466;DHT22;2755;50.728;7.108;2023-05-27T02:02:04;9.30;41.60
5466;DHT22;2755;50.728;7.108;2023-05-27T02:06:56;9.30;40.80
5466;DHT22;2755;50.728;7.108;2023-05-27T02:11:48;9.10;43.30
5466;DHT22;2755;50.728;7.108;2023-05-27T02:14:14;9.40;43.50
5466;DHT22;2755;50.728;7.108;2023-05-27T02:16:39;9.00;44.50
5466;DHT22;2755;50.728;7.108;2023-05-27T02:19:05;9.00;43.90
5466;DHT22;2755;50.728;7.108;2023-05-27T02:21:31;9.20;46.70
5466;DHT22;2755;50.728;7.108;2023-05-27T02:28:49;9.30;50.20
5466;DHT22;2755;50.728;7.108;2023-05-27T02:33:41;8.70;54.70
5466;DHT22;2755;50.728;7.108;2023-05-27T02:36:06;8.40;52.10
5466;DHT22;2755;50.728;7.108;2023-05-27T02:40:58;8.70;55.10
5466;DHT22;2755;50.728;7.108;2023-05-27T02:45:50;9.00;56.60
5466;DHT22;2755;50.728;7.108;2023-05-27T02:50:41;8.70;60.70
5466;DHT22;2755;50.728;7.108;2023-05-27T02:55:37;8.50;65.00
5466;DHT22;2755;50.728;7.108;2023-05-27T02:58:02;8.10;61.10
5466;DHT22;2755;50.728;7.108;2023-05-27T03:00:30;8.30;64.00
5466;DHT22;2755;50.728;7.108;2023-05-27T03:07:48;8.30;62.70
5466;DHT22;2755;50.728;7.108;2023-05-27T03:12:40;8.00;66.80
5466;DHT22;2755;50.728;7.108;2023-05-27T03:15:06;7.20;70.70
5466;DHT22;2755;50.728;7.108;2023-05-27T03:17:38;8.50;69.30
5466;DHT22;2755;50.728;7.108;2023-05-27T03:20:04;8.50;69.50
5466;DHT22;2755;50.728;7.108;2023-05-27T03:22:32;8.10;70.00
5466;DHT22;2755;50.728;7.108;2023-05-27T03:27:24;7.80;73.90
5466;DHT22;2755;50.728;7.108;2023-05-27T03:29:50;8.10;75.90
5466;DHT22;2755;50.728;7.108;2023-05-27T03:34:42;8.20;78.40
5466;DHT22;2755;50.728;7.108;2023-05-27T03:39:35;7.80;80.30
5466;DHT22;2755;50.728;7.108;2023-05-27T03:46:52;7.90;85.30
5466;DHT22;2755;50.728;7.108;2023-05-27T03:49:18;7.90;82.20
5466;DHT22;2755;50.728;7.108;2023-05-27T03:51:44;8.00;83.20
5466;DHT22;2755;50.728;7.108;2023-05-27T03:54:09;7.90;86.40
5466;DHT22;2755;50.728;7.108;2023-05-27T04:01:27;8.10;89.30
5466;DHT22;2755;50.728;7.108;2023-05-27T04:03:53;7.60;88.70
5466;DHT22;2755;50.728;7.108;2023-05-27T04:11:12;8.20;92.00
5466;DHT22;2755;50.728;7.108;2023-05-27T04:13:41;8.10;89.40
5466;DHT22;2755;50.728;7.108;2023-05-27T04:18:34;8.30;92.80
5466;DHT22;2755;50.728;7.108;2023-05-27T04:21:01;8.30;91.60
5466;DHT22;2755;50.728;7.108;2023-05-27T04:28:18;7.80;92.80
5466;DHT22;2755;50.728;7.108;2023-05-27T04:30:45;8.70;91.80
5466;DHT22;2755;50.728;7.108;2023-05-27T04:33:14;8.00;92.70
5466;DHT22;2755;50.728;7.108;2023-05-27T04:35:40;8.50;91.90
5466;DHT22;2755;50.728;7.108;2023-05-27T04:38:12;8.60;91.60
5466;DHT22;2755;50.728;7.108;2023-05-27T04:40:42;9.20;91.00
5466;DHT22;2755;50.728;7.108;2023-05-27T04:43:11;9.50;91.70
5466;DHT22;2755;50.728;7.108;2023-05-27T04:45:39;9.00;91.50
5466;DHT22;2755;50.728;7.108;2023-05-27T04:48:05;9.20;91.20
5466;DHT22;2755;50.728;7.108;2023-05-27T04:50:31;9.50;90.60
5466;DHT22;2755;50.728;7.108;2023-05-27T04:55:23;9.10;78.80
5466;DHT22;2755;50.728;7.108;2023-05-27T05:00:15;9.90;72.50
5466;DHT22;2755;50.728;7.108;2023-05-27T05:02:49;10.10;66.60
5466;DHT22;2755;50.728;7.108;2023-05-27T05:07:43;10.50;62.90
5466;DHT22;2755;50.728;7.108;2023-05-27T05:12:41;11.40;56.00
5466;DHT22;2755;50.728;7.108;2023-05-27T05:15:07;11.30;53.10
5466;DHT22;2755;50.728;7.108;2023-05-27T05:17:33;11.40;46.80
5466;DHT22;2755;50.728;7.108;2023-05-27T05:20:05;10.70;42.50
5466;DHT22;2755;50.728;7.108;2023-05-27T05:22:34;11.40;41.30
5466;DHT22;2755;50.728;7.108;2023-05-27T05:24:59;11.40;40.90
5466;DHT22;2755;50.728;7.108;2023-05-27T05:27:25;11.70;34.90
5466;DHT22;2755;50.728;7.108;2023-05-27T05:29:51;11.70;30.90
5466;DHT22;2755;50.728;7.108;2023-05-27T05:34:42;11.30;26.90
5466;DHT22;2755;50.728;7.108;2023-05-27T05:37:10;12.20;22.00
5466;DHT22;2755;50.728;7.108;2023-05-27T05:39:36;13.00;23.10
5466;DHT22;2755;50.728;7.108;2023-05-27T05:42:02;12.50;21.70
5466;DHT22;2755;50.728;7.108;2023-05-27T05:46:54;13.50;17.80
5466;DHT22;2755;50.728;7.108;2023-05-27T05:59:04;15.40;9.00
5466;DHT22;2755;50.728;7.108;2023-05-27T06:01:30;14.70;5.00
5466;DHT22;2755;50.728;7.108;2023-05-27T06:06:23;15.80;2.10
5466;DHT22;2755;50.728;7.108;2023-05-27T06:08:49;15.80;1.00
5466;DHT22;2755;50.728;7.108;2023-05-27T06:11:19;15.90;1.00
5466;DHT22;2755;50.728;7.108;2023-05-27T06:16:12;15.80;1.00
5466;DHT22;2755;50.728;7.108;2023-05-27T06:18:37;16.00;1.00
5466;DHT22;2755;50.728;7.108;2023-05-27T06:21:03;15.30;1.00
5466;DHT22;2755;50.728;7.108;2023-05-27T06:23:28;16.00;1.00
5466;DHT22;2755;50.728;7.108;2023-05-27T06:25:54;15.50;1.00
5466;DHT22;2755;50.728;7.108;2023-05-27T06:28:20;15.30;1.00
5466;DHT22;2755;50.728;7.108;2023-05-27T06:30:46;17.20;1.00
5466;DHT22;2755;50.728;7.108;2023-05-27T06:35:38;16.60;1.00
5466;DHT22;2755;50.728;7.108;2023-05-27T06:38:04;16.70;1.00
5466;DHT22;2755;50.728;7.108;2023-05-27T06:40:30;16.90;1.00
5466;DHT22;2755;50.728;7.108;2023-05-27T06:42:56;16.90;1.00
5466;DHT22;2755;50.728;7.108;2023-05-27T06:45:22;16.80;1.00
5466;DHT22;2755;50.728;7.108;2023-05-27T06:47:47;16.60;1.00
5466;DHT22;2755;50.728;7.108;2023-05-27T06:50:13;16.40;1.00
5466;DHT22;2755;50.728;7.108;2023-05-27T06:52:39;15.80;1.00
5466;DHT22;2755;50.728;7.108;2023-05-27T06:55:05;16.40;1.00
5466;DHT22;2755;50.728;7.108;2023-05-27T06:57:30;16.20;1.00
5466;DHT22;2755;50.728;7.108;2023-05-27T06:59:56;16.60;1.00
5466;DHT22;2755;50.728;7.108;2023-05-27T07:02:21;16.90;1.00
5466;DHT22;2755;50.728;7.108;2023-05-27T07:04:47;17.30;1.00
5466;DHT22;2755;50.728;7.108;2023-05-27T07:09:38;17.60;1.00
5466;DHT22;2755;50.728;7.108;2023-05-27T07:16:58;17.60;1.00
5466;DHT22;2755;50.728;7.108;2023-05-27T07:19:23;18.00;1.00
5466;DHT22;2755;50.728;7.108;2023-05-27T07:21:49;17.00;1.00
5466;DHT22;2755;50.728;7.108;2023-05-27T07:26:40;18.70;1.00
5466;DHT22;2755;50.728;7.108;2023-05-27T07:29:06;18.50;1.00
5466;DHT22;2755;50.728;7.108;2023-05-27T07:31:32;18.90;1.00
5466;DHT22;2755;50.728;7.108;2023-05-27T07:36:23;19.60;1.00
5466;DHT22;2755;50.728;7.108;2023-05-27T07:38:49;18.90;1.00
5466;DHT22;2755;50.728;7.108;2023-05-27T07:41:15;19.30;1.00
5466;DHT22;2755;50.728;7.108;2023-05-27T07:43:40;19.60;1.00
5466;DHT22;2755;50.728;7.108;2023-05-27T07:46:06;19.90;1.00
5466;DHT22;2755;50.728;7.108;2023-05-27T07:48:31;20.10;1.00
5466;DHT22;2755;50.728;7.108;2023-05-27T07:50:57;19.80;1.00
5466;DHT22;2755;50.728;7.108;2023-05-27T07:53:23;20.50;1.00
5466;DHT22;2755;50.728;7.108;2023-05-27T07:55:48;20.90;1.00
5466;DHT22;2755;50.728;7.108;2023-05-27T07:58:14;20.90;1.00
5466;DHT22;2755;50.728;7.108;2023-05-27T08:00:40;19.70;1.00
5466;DHT22;2755;50.728;7.108;2023-05-27T08:03:06;21.00;1.00
5466;DHT22;2755;50.728;7.108;2023-05-27T08:05:31;21.40;1.00
5466;DHT22;2755;50.728;7.108;2023-05-27T08:07:58;21.60;1.00
5466;DHT22;2755;50.728;7.108;2023-05-27T08:10:23;21.20;1.00
5466;DHT22;2755;50.728;7.108;2023-05-27T08:12:49;21.40;1.00
5466;DHT22;2755;50.728;7.108;2023-05-27T08:15:14;21.80;1.00
5466;DHT22;2755;50.728;7.108;2023-05-27T08:17:40;21.90;1.00
5466;DHT22;2755;50.728;7.108;2023-05-27T08:20:07;22.40;1.00
5466;DHT22;2755;50.728;7.108;2023-05-27T08:22:33;22.50;1.00
5466;DHT22;2755;50.728;7.108;2023-05-27T08:24:59;22.80;1.00
5466;DHT22;2755;50.728;7.108;2023-05-27T08:27:50;22.80;1.00
5466;DHT22;2755;50.728;7.108;2023-05-27T08:30:17;22.70;1.00
5466;DHT22;2755;50.728;7.108;2023-05-27T08:32:43;22.70;1.00
5466;DHT22;2755;50.728;7.108;2023-05-27T08:35:10;23.30;1.00
5466;DHT22;2755;50.728;7.108;2023-05-27T08:37:36;23.10;1.00
5466;DHT22;2755;50.728;7.108;2023-05-27T08:40:03;23.50;1.00
5466;DHT22;2755;50.728;7.108;2023-05-27T08:42:32;22.80;1.00
5466;DHT22;2755;50.728;7.108;2023-05-27T08:44:58;23.10;1.00
5466;DHT22;2755;50.728;7.108;2023-05-27T08:47:25;23.10;1.00
5466;DHT22;2755;50.728;7.108;2023-05-27T08:49:51;22.30;1.00
5466;DHT22;2755;50.728;7.108;2023-05-27T08:52:18;22.80;1.00
5466;DHT22;2755;50.728;7.108;2023-05-27T08:54:46;23.10;1.00
5466;DHT22;2755;50.728;7.108;2023-05-27T08:57:13;24.00;1.00
5466;DHT22;2755;50.728;7.108;2023-05-27T09:02:11;24.00;1.00
5466;DHT22;2755;50.728;7.108;2023-05-27T09:04:40;24.30;1.00
5466;DHT22;2755;50.728;7.108;2023-05-27T09:07:07;22.80;1.00
5466;DHT22;2755;50.728;7.108;2023-05-27T09:09:33;23.70;1.00
5466;DHT22;2755;50.728;7.108;2023-05-27T09:12:02;23.50;1.00
5466;DHT22;2755;50.728;7.108;2023-05-27T09:14:29;23.80;1.00
5466;DHT22;2755;50.728;7.108;2023-05-27T09:21:54;24.00;1.00
5466;DHT22;2755;50.728;7.108;2023-05-27T09:24:19;24.80;1.00
5466;DHT22;2755;50.728;7.108;2023-05-27T09:26:50;24.30;1.00
5466;DHT22;2755;50.728;7.108;2023-05-27T09:29:18;25.80;1.00
5466;DHT22;2755;50.728;7.108;2023-05-27T09:31:44;25.00;1.00
5466;DHT22;2755;50.728;7.108;2023-05-27T09:36:48;25.60;1.00
5466;DHT22;2755;50.728;7.108;2023-05-27T09:39:14;25.90;1.00
5466;DHT22;2755;50.728;7.108;2023-05-27T09:41:41;25.40;1.00
5466;DHT22;2755;50.728;7.108;2023-05-27T09:44:07;25.20;1.00
5466;DHT22;2755;50.728;7.108;2023-05-27T09:46:33;25.80;1.00
5466;DHT22;2755;50.728;7.108;2023-05-27T09:48:59;26.10;1.00
5466;DHT22;2755;50.728;7.108;2023-05-27T09:51:29;26.10;1.00
5466;DHT22;2755;50.728;7.108;2023-05-27T09:53:54;26.30;1.00
5466;DHT22;2755;50.728;7.108;2023-05-27T09:56:30;25.00;1.00
5466;DHT22;2755;50.728;7.108;2023-05-27T09:58:57;25.60;1.00
5466;DHT22;2755;50.728;7.108;2023-05-27T10:01:28;25.50;1.00
5466;DHT22;2755;50.728;7.108;2023-05-27T10:03:57;26.10;1.00
5466;DHT22;2755;50.728;7.108;2023-05-27T10:06:24;26.50;1.00
5466;DHT22;2755;50.728;7.108;2023-05-27T10:08:51;26.30;1.00
5466;DHT22;2755;50.728;7.108;2023-05-27T10:11:22;25.50;1.00
5466;DHT22;2755;50.728;7.108;2023-05-27T10:13:49;25.10;1.00
5466;DHT22;2755;50.728;7.108;2023-05-27T10:16:19;25.00;1.00
5466;DHT22;2755;50.728;7.108;2023-05-27T10:18:46;25.00;1.00
5466;DHT22;2755;50.728;7.108;2023-05-27T10:21:19;26.20;1.00
5466;DHT22;2755;50.728;7.108;2023-05-27T10:23:55;25.60;1.00
5466;DHT22;2755;50.728;7.108;2023-05-27T10:26:49;25.50;1.00
5466;DHT22;2755;50.728;7.108;2023-05-27T10:31:50;25.40;1.00
5466;DHT22;2755;50.728;7.108;2023-05-27T10:34:16;25.60;1.00
5466;DHT22;2755;50.728;7.108;2023-05-27T10:36:44;25.90;1.00
5466;DHT22;2755;50.728;7.108;2023-05-27T10:41:52;26.10;1.00
5466;DHT22;2755;50.728;7.108;2023-05-27T10:44:27;25.50;1.00
5466;DHT22;2755;50.728;7.108;2023-05-27T10:49:27;25.30;1.00
5466;DHT22;2755;50.728;7.108;2023-05-27T10:54:36;25.00;1.00
5466;DHT22;2755;50.728;7.108;2023-05-27T10:57:02;26.40;1.00
5466;DHT22;2755;50.728;7.108;2023-05-27T11:02:09;25.20;1.00
5466;DHT22;2755;50.728;7.108;2023-05-27T11:04:36;25.70;1.00
5466;DHT22;2755;50.728;7.108;2023-05-27T11:07:03;27.40;1.00
5466;DHT22;2755;50.728;7.108;2023-05-27T11:09:28;26.10;1.00
5466;DHT22;2755;50.728;7.108;2023-05-27T11:12:01;26.20;1.00
5466;DHT22;2755;50.728;7.108;2023-05-27T11:14:30;26.30;1.00
5466;DHT22;2755;50.728;7.108;2023-05-27T11:16:56;27.40;1.00
5466;DHT22;2755;50.728;7.108;2023-05-27T11:19:22;26.60;1.00
5466;DHT22;2755;50.728;7.108;2023-05-27T11:21:48;25.50;1.00
5466;DHT22;2755;50.728;7.108;2023-05-27T11:24:18;25.60;1.00
5466;DHT22;2755;50.728;7.108;2023-05-27T11:26:45;25.90;1.00
5466;DHT22;2755;50.728;7.108;2023-05-27T11:31:38;25.50;1.00
5466;DHT22;2755;50.728;7.108;2023-05-27T11:34:11;25.20;1.00
5466;DHT22;2755;50.728;7.108;2023-05-27T11:36:38;25.40;1.00
5466;DHT22;2755;50.728;7.108;2023-05-27T11:39:04;26.30;1.00
5466;DHT22;2755;50.728;7.108;2023-05-27T11:43:58;26.10;1.00
5466;DHT22;2755;50.728;7.108;2023-05-27T11:48:59;24.90;1.00
5466;DHT22;2755;50.728;7.108;2023-05-27T11:51:29;25.50;1.00
5466;DHT22;2755;50.728;7.108;2023-05-27T11:53:55;25.80;1.00
5466;DHT22;2755;50.728;7.108;2023-05-27T11:56:21;26.30;1.00
5466;DHT22;2755;50.728;7.108;2023-05-27T11:58:47;26.50;1.00
5466;DHT22;2755;50.728;7.108;2023-05-27T12:01:12;25.80;1.00
5466;DHT22;2755;50.728;7.108;2023-05-27T12:13:22;27.20;1.00
5466;DHT22;2755;50.728;7.108;2023-05-27T12:20:41;25.40;1.00
5466;DHT22;2755;50.728;7.108;2023-05-27T12:27:59;26.80;1.00
5466;DHT22;2755;50.728;7.108;2023-05-27T12:30:24;26.40;1.00
5466;DHT22;2755;50.728;7.108;2023-05-27T12:32:50;25.50;1.00
5466;DHT22;2755;50.728;7.108;2023-05-27T12:40:08;27.10;1.00
5466;DHT22;2755;50.728;7.108;2023-05-27T12:42:38;27.00;1.00
5466;DHT22;2755;50.728;7.108;2023-05-27T12:45:04;27.20;1.00
5466;DHT22;2755;50.728;7.108;2023-05-27T12:47:29;27.60;1.00
5466;DHT22;2755;50.728;7.108;2023-05-27T12:49:55;28.20;1.00
5466;DHT22;2755;50.728;7.108;2023-05-27T12:54:46;29.20;1.00
5466;DHT22;2755;50.728;7.108;2023-05-27T12:57:12;29.20;1.00
5466;DHT22;2755;50.728;7.108;2023-05-27T12:59:38;30.00;1.00
5466;DHT22;2755;50.728;7.108;2023-05-27T13:02:03;29.70;1.00
5466;DHT22;2755;50.728;7.108;2023-05-27T13:06:56;29.80;1.00
5466;DHT22;2755;50.728;7.108;2023-05-27T13:09:22;29.50;1.00
5466;DHT22;2755;50.728;7.108;2023-05-27T13:11:47;29.70;1.00
5466;DHT22;2755;50.728;7.108;2023-05-27T13:14:13;29.10;1.00
5466;DHT22;2755;50.728;7.108;2023-05-27T13:16:39;28.40;1.00
5466;DHT22;2755;50.728;7.108;2023-05-27T13:19:04;28.00;1.00
5466;DHT22;2755;50.728;7.108;2023-05-27T13:21:30;27.70;1.00
5466;DHT22;2755;50.728;7.108;2023-05-27T13:28:49;26.90;1.00
5466;DHT22;2755;50.728;7.108;2023-05-27T13:31:15;26.50;1.00
5466;DHT22;2755;50.728;7.108;2023-05-27T13:33:41;26.60;1.00
5466;DHT22;2755;50.728;7.108;2023-05-27T13:36:07;26.30;1.00
5466;DHT22;2755;50.728;7.108;2023-05-27T13:38:32;26.40;1.00
5466;DHT22;2755;50.728;7.108;2023-05-27T13:40:58;25.70;1.00
5466;DHT22;2755;50.728;7.108;2023-05-27T13:43:25;25.70;1.00
5466;DHT22;2755;50.728;7.108;2023-05-27T13:45:51;25.90;1.00
5466;DHT22;2755;50.728;7.108;2023-05-27T13:48:16;25.70;1.00
5466;DHT22;2755;50.728;7.108;2023-05-27T13:50:42;25.30;1.00
5466;DHT22;2755;50.728;7.108;2023-05-27T13:53:07;26.10;1.00
5466;DHT22;2755;50.728;7.108;2023-05-27T13:55:33;26.20;1.00
5466;DHT22;2755;50.728;7.108;2023-05-27T13:57:59;26.00;1.00
5466;DHT22;2755;50.728;7.108;2023-05-27T14:00:24;23.80;1.00
5466;DHT22;2755;50.728;7.108;2023-05-27T14:02:50;25.10;1.00
5466;DHT22;2755;50.728;7.108;2023-05-27T14:05:16;24.70;1.00
5466;DHT22;2755;50.728;7.108;2023-05-27T14:07:43;24.30;1.00
5466;DHT22;2755;50.728;7.108;2023-05-27T14:10:10;25.20;1.00
5466;DHT22;2755;50.728;7.108;2023-05-27T14:12:36;23.90;1.00
5466;DHT22;2755;50.728;7.108;2023-05-27T14:15:02;24.20;1.00
5466;DHT22;2755;50.728;7.108;2023-05-27T14:17:27;24.20;1.00
5466;DHT22;2755;50.728;7.108;2023-05-27T14:19:53;24.50;1.00
5466;DHT22;2755;50.728;7.108;2023-05-27T14:22:19;23.20;1.00
5466;DHT22;2755;50.728;7.108;2023-05-27T14:24:45;24.20;1.00
5466;DHT22;2755;50.728;7.108;2023-05-27T14:27:11;24.20;1.00
5466;DHT22;2755;50.728;7.108;2023-05-27T14:29:37;24.00;1.00
5466;DHT22;2755;50.728;7.108;2023-05-27T14:34:29;24.10;1.00
5466;DHT22;2755;50.728;7.108;2023-05-27T14:36:54;24.10;1.00
5466;DHT22;2755;50.728;7.108;2023-05-27T14:39:20;23.80;1.00
5466;DHT22;2755;50.728;7.108;2023-05-27T14:41:45;24.40;1.00
5466;DHT22;2755;50.728;7.108;2023-05-27T14:51:29;24.20;1.00
5466;DHT22;2755;50.728;7.108;2023-05-27T14:56:21;24.00;1.00
5466;DHT22;2755;50.728;7.108;2023-05-27T14:58:47;24.30;1.00
5466;DHT22;2755;50.728;7.108;2023-05-27T15:01:15;23.70;1.00
5466;DHT22;2755;50.728;7.108;2023-05-27T15:06:08;24.00;1.00
5466;DHT22;2755;50.728;7.108;2023-05-27T15:08:36;23.70;1.00
5466;DHT22;2755;50.728;7.108;2023-05-27T15:11:02;23.60;1.00
5466;DHT22;2755;50.728;7.108;2023-05-27T15:13:28;23.60;1.00
5466;DHT22;2755;50.728;7.108;2023-05-27T15:18:19;22.30;1.00
5466;DHT22;2755;50.728;7.108;2023-05-27T15:20:45;23.90;1.00
5466;DHT22;2755;50.728;7.108;2023-05-27T15:23:11;24.00;1.00
5466;DHT22;2755;50.728;7.108;2023-05-27T15:25:36;24.20;1.00
5466;DHT22;2755;50.728;7.108;2023-05-27T15:28:02;24.10;1.00
5466;DHT22;2755;50.728;7.108;2023-05-27T15:30:27;24.20;1.00
5466;DHT22;2755;50.728;7.108;2023-05-27T15:32:53;23.80;1.00
5466;DHT22;2755;50.728;7.108;2023-05-27T15:35:19;23.70;1.00
5466;DHT22;2755;50.728;7.108;2023-05-27T15:37:44;23.90;1.00
5466;DHT22;2755;50.728;7.108;2023-05-27T15:40:11;24.00;1.00
5466;DHT22;2755;50.728;7.108;2023-05-27T15:42:37;24.00;1.00
5466;DHT22;2755;50.728;7.108;2023-05-27T15:45:03;24.60;1.00
5466;DHT22;2755;50.728;7.108;2023-05-27T15:47:29;24.60;1.00
5466;DHT22;2755;50.728;7.108;2023-05-27T15:52:21;24.00;1.00
5466;DHT22;2755;50.728;7.108;2023-05-27T15:57:12;24.30;1.00
5466;DHT22;2755;50.728;7.108;2023-05-27T16:02:05;25.10;1.00
5466;DHT22;2755;50.728;7.108;2023-05-27T16:04:31;23.80;1.00
5466;DHT22;2755;50.728;7.108;2023-05-27T16:06:57;24.00;1.00
5466;DHT22;2755;50.728;7.108;2023-05-27T16:11:50;23.00;1.00
5466;DHT22;2755;50.728;7.108;2023-05-27T16:14:16;22.80;1.00
5466;DHT22;2755;50.728;7.108;2023-05-27T16:24:00;24.00;1.00
5466;DHT22;2755;50.728;7.108;2023-05-27T16:26:25;24.00;1.00
5466;DHT22;2755;50.728;7.108;2023-05-27T16:28:52;23.60;1.00
5466;DHT22;2755;50.728;7.108;2023-05-27T16:38:36;23.20;1.00
5466;DHT22;2755;50.728;7.108;2023-05-27T16:41:02;23.60;1.00
5466;DHT22;2755;50.728;7.108;2023-05-27T16:43:27;23.70;1.00
5466;DHT22;2755;50.728;7.108;2023-05-27T16:45:53;23.50;1.00
5466;DHT22;2755;50.728;7.108;2023-05-27T16:48:18;23.60;1.00
5466;DHT22;2755;50.728;7.108;2023-05-27T16:50:45;23.70;1.00
5466;DHT22;2755;50.728;7.108;2023-05-27T16:53:10;23.10;1.00
5466;DHT22;2755;50.728;7.108;2023-05-27T16:55:36;22.90;1.00
5466;DHT22;2755;50.728;7.108;2023-05-27T16:58:01;24.50;1.00
5466;DHT22;2755;50.728;7.108;2023-05-27T17:00:27;23.10;1.00
5466;DHT22;2755;50.728;7.108;2023-05-27T17:02:54;23.60;1.00
5466;DHT22;2755;50.728;7.108;2023-05-27T17:05:20;23.50;1.00
5466;DHT22;2755;50.728;7.108;2023-05-27T17:07:45;23.30;1.00
5466;DHT22;2755;50.728;7.108;2023-05-27T17:10:11;22.70;1.00
5466;DHT22;2755;50.728;7.108;2023-05-27T17:15:03;23.00;1.00
5466;DHT22;2755;50.728;7.108;2023-05-27T17:17:28;23.40;1.00
5466;DHT22;2755;50.728;7.108;2023-05-27T17:19:54;23.20;1.00
5466;DHT22;2755;50.728;7.108;2023-05-27T17:22:20;23.00;1.00
5466;DHT22;2755;50.728;7.108;2023-05-27T17:24:45;23.20;1.00
5466;DHT22;2755;50.728;7.108;2023-05-27T17:27:11;22.60;1.00
5466;DHT22;2755;50.728;7.108;2023-05-27T17:29:37;23.00;1.00
5466;DHT22;2755;50.728;7.108;2023-05-27T17:34:30;23.00;1.00
5466;DHT22;2755;50.728;7.108;2023-05-27T17:36:55;22.90;1.00
5466;DHT22;2755;50.728;7.108;2023-05-27T17:39:21;23.00;1.00
5466;DHT22;2755;50.728;7.108;2023-05-27T17:41:47;23.10;1.00
5466;DHT22;2755;50.728;7.108;2023-05-27T17:44:13;22.60;1.00
5466;DHT22;2755;50.728;7.108;2023-05-27T17:49:05;23.20;1.00
5466;DHT22;2755;50.728;7.108;2023-05-27T17:51:31;22.60;1.00
5466;DHT22;2755;50.728;7.108;2023-05-27T17:53:57;22.80;1.00
5466;DHT22;2755;50.728;7.108;2023-05-27T17:58:50;22.70;1.00
5466;DHT22;2755;50.728;7.108;2023-05-27T18:01:15;22.50;1.00
5466;DHT22;2755;50.728;7.108;2023-05-27T18:03:41;22.90;1.00
5466;DHT22;2755;50.728;7.108;2023-05-27T18:06:07;22.90;1.00
5466;DHT22;2755;50.728;7.108;2023-05-27T18:10:59;22.80;1.00
5466;DHT22;2755;50.728;7.108;2023-05-27T18:15:52;22.40;1.00
5466;DHT22;2755;50.728;7.108;2023-05-27T18:18:19;22.40;1.00
5466;DHT22;2755;50.728;7.108;2023-05-27T18:20:45;22.10;1.00
5466;DHT22;2755;50.728;7.108;2023-05-27T18:23:14;24.80;1.00
5466;DHT22;2755;50.728;7.108;2023-05-27T18:25:40;22.50;1.00
5466;DHT22;2755;50.728;7.108;2023-05-27T18:28:05;21.70;1.00
5466;DHT22;2755;50.728;7.108;2023-05-27T18:30:31;21.30;1.00
5466;DHT22;2755;50.728;7.108;2023-05-27T18:32:58;22.20;1.00
5466;DHT22;2755;50.728;7.108;2023-05-27T18:35:24;22.00;1.00
5466;DHT22;2755;50.728;7.108;2023-05-27T18:37:52;22.20;1.00
5466;DHT22;2755;50.728;7.108;2023-05-27T18:42:44;21.70;1.00
5466;DHT22;2755;50.728;7.108;2023-05-27T18:45:10;21.50;1.00
5466;DHT22;2755;50.728;7.108;2023-05-27T18:47:36;21.70;1.00
5466;DHT22;2755;50.728;7.108;2023-05-27T18:50:02;21.60;1.00
5466;DHT22;2755;50.728;7.108;2023-05-27T18:52:28;21.90;1.00
5466;DHT22;2755;50.728;7.108;2023-05-27T18:57:20;21.40;1.00
5466;DHT22;2755;50.728;7.108;2023-05-27T18:59:52;21.20;1.00
5466;DHT22;2755;50.728;7.108;2023-05-27T19:02:19;20.80;1.00
5466;DHT22;2755;50.728;7.108;2023-05-27T19:07:12;20.70;1.00
5466;DHT22;2755;50.728;7.108;2023-05-27T19:12:05;20.70;1.00
5466;DHT22;2755;50.728;7.108;2023-05-27T19:14:31;20.90;1.00
5466;DHT22;2755;50.728;7.108;2023-05-27T19:19:22;20.40;1.00
5466;DHT22;2755;50.728;7.108;2023-05-27T19:21:48;20.40;1.00
5466;DHT22;2755;50.728;7.108;2023-05-27T19:24:13;19.90;1.00
5466;DHT22;2755;50.728;7.108;2023-05-27T19:26:39;19.90;1.00
5466;DHT22;2755;50.728;7.108;2023-05-27T19:29:06;19.10;1.00
5466;DHT22;2755;50.728;7.108;2023-05-27T19:31:32;19.30;1.00
5466;DHT22;2755;50.728;7.108;2023-05-27T19:33:58;18.80;1.00
5466;DHT22;2755;50.728;7.108;2023-05-27T19:36:23;19.20;1.00
5466;DHT22;2755;50.728;7.108;2023-05-27T19:38:49;19.60;1.00
5466;DHT22;2755;50.728;7.108;2023-05-27T19:41:14;19.10;1.00
5466;DHT22;2755;50.728;7.108;2023-05-27T19:43:40;19.10;1.00
5466;DHT22;2755;50.728;7.108;2023-05-27T19:46:05;19.30;1.00
5466;DHT22;2755;50.728;7.108;2023-05-27T19:48:31;18.70;1.00
5466;DHT22;2755;50.728;7.108;2023-05-27T19:50:57;19.10;1.00
5466;DHT22;2755;50.728;7.108;2023-05-27T19:53:28;18.60;1.00
5466;DHT22;2755;50.728;7.108;2023-05-27T19:58:20;17.90;1.00
5466;DHT22;2755;50.728;7.108;2023-05-27T20:00:46;18.20;1.00
5466;DHT22;2755;50.728;7.108;2023-05-27T20:03:11;18.70;1.00
5466;DHT22;2755;50.728;7.108;2023-05-27T20:08:03;18.40;1.00
5466;DHT22;2755;50.728;7.108;2023-05-27T20:10:29;17.20;1.00
5466;DHT22;2755;50.728;7.108;2023-05-27T20:12:54;18.00;1.00
5466;DHT22;2755;50.728;7.108;2023-05-27T20:15:20;17.50;1.00
5466;DHT22;2755;50.728;7.108;2023-05-27T20:20:12;17.10;1.00
5466;DHT22;2755;50.728;7.108;2023-05-27T20:22:38;17.40;1.00
5466;DHT22;2755;50.728;7.108;2023-05-27T20:25:04;17.00;1.00
5466;DHT22;2755;50.728;7.108;2023-05-27T20:29:56;16.70;1.00
5466;DHT22;2755;50.728;7.108;2023-05-27T20:32:22;16.70;1.00
5466;DHT22;2755;50.728;7.108;2023-05-27T20:37:14;16.50;1.00
5466;DHT22;2755;50.728;7.108;2023-05-27T20:39:41;16.60;1.00
5466;DHT22;2755;50.728;7.108;2023-05-27T20:42:07;15.90;1.00
5466;DHT22;2755;50.728;7.108;2023-05-27T20:51:58;16.30;1.00
5466;DHT22;2755;50.728;7.108;2023-05-27T20:54:23;16.10;1.00
5466;DHT22;2755;50.728;7.108;2023-05-27T21:01:41;15.40;1.00
5466;DHT22;2755;50.728;7.108;2023-05-27T21:04:08;15.70;1.00
5466;DHT22;2755;50.728;7.108;2023-05-27T21:06:35;15.80;1.00
5466;DHT22;2755;50.728;7.108;2023-05-27T21:13:54;15.80;1.00